createdAt,value
2022-10-11T00:00:59.882Z,17.70
2022-10-11T00:03:35.086Z,15.15
2022-10-11T00:06:03.749Z,18.85
2022-10-11T00:08:32.153Z,12.38
2022-10-11T00:11:01.024Z,15.45
2022-10-11T00:13:29.269Z,15.55
2022-10-11T00:15:57.410Z,10.75
2022-10-11T00:18:25.159Z,10.77
2022-10-11T00:21:04.846Z,12.43
2022-10-11T00:23:32.610Z,13.43
2022-10-11T00:26:01.410Z,11.75
2022-10-11T00:28:28.969Z,12.20
2022-10-11T00:30:56.619Z,14.35
2022-10-11T00:33:23.885Z,17.10
2022-10-11T00:35:50.963Z,15.43
2022-10-11T00:38:18.434Z,15.02
2022-10-11T00:40:46.169Z,18.05
2022-10-11T00:43:25.989Z,15.88
2022-10-11T00:46:05.342Z,18.95
2022-10-11T00:48:57.098Z,19.92
2022-10-11T00:51:37.024Z,14.00
2022-10-11T00:54:06.038Z,16.13
2022-10-11T00:56:37.683Z,15.30
2022-10-11T00:59:10.010Z,21.23
2022-10-11T01:01:37.583Z,19.10
2022-10-11T01:04:04.967Z,17.90
2022-10-11T01:06:33.405Z,13.73
2022-10-11T01:09:00.625Z,15.85
2022-10-11T01:11:30.736Z,16.38
2022-10-11T01:14:18.045Z,19.95
2022-10-11T01:16:51.050Z,18.33
2022-10-11T01:19:51.424Z,13.77
2022-10-11T01:22:30.627Z,16.00
2022-10-11T01:25:22.663Z,14.68
2022-10-11T01:28:18.071Z,16.42
2022-10-11T01:30:46.151Z,14.27
2022-10-11T01:33:39.702Z,14.68
2022-10-11T01:36:16.643Z,11.40
2022-10-11T01:39:02.445Z,15.23
2022-10-11T01:41:36.501Z,20.63
2022-10-11T01:44:05.306Z,16.02
2022-10-11T01:46:33.265Z,18.75
2022-10-11T01:49:02.337Z,13.57
2022-10-11T01:51:35.918Z,17.33
2022-10-11T01:54:16.876Z,15.23
2022-10-11T01:56:52.253Z,19.00
2022-10-11T01:59:52.835Z,14.80
2022-10-11T02:02:38.597Z,12.77
2022-10-11T02:05:39.052Z,16.92
2022-10-11T02:08:42.228Z,19.55
2022-10-11T02:11:20.943Z,14.90
2022-10-11T02:13:55.008Z,14.95
2022-10-11T02:16:26.940Z,15.02
2022-10-11T02:18:56.730Z,15.80
2022-10-11T02:21:24.686Z,17.90
2022-10-11T02:23:57.368Z,19.42
2022-10-11T02:26:27.633Z,17.75
2022-10-11T02:28:57.762Z,17.20
2022-10-11T02:31:25.709Z,16.63
2022-10-11T02:34:02.541Z,18.05
2022-10-11T02:36:59.794Z,18.92
2022-10-11T02:39:32.817Z,16.17
2022-10-11T02:42:04.268Z,19.20
2022-10-11T02:44:37.014Z,15.95
2022-10-11T02:47:04.793Z,17.65
2022-10-11T02:49:32.510Z,19.42
2022-10-11T02:51:59.803Z,18.05
2022-10-11T02:54:27.190Z,21.73
2022-10-11T02:56:54.246Z,19.98
2022-10-11T02:59:21.472Z,20.45
2022-10-11T03:01:48.745Z,20.85
2022-10-11T03:04:15.763Z,17.50
2022-10-11T03:06:43.004Z,19.88
2022-10-11T03:09:09.978Z,19.70
2022-10-11T03:11:36.952Z,20.20
2022-10-11T03:14:04.153Z,17.90
2022-10-11T03:16:31.125Z,23.20
2022-10-11T03:18:58.068Z,24.98
2022-10-11T03:21:25.298Z,37.58
2022-10-11T03:23:52.317Z,106.47
2022-10-11T03:26:19.313Z,33.72
2022-10-11T03:28:46.577Z,32.53
2022-10-11T03:31:13.717Z,36.28
2022-10-11T03:33:40.692Z,33.75
2022-10-11T03:36:09.117Z,41.67
2022-10-11T03:38:36.598Z,33.30
2022-10-11T03:41:03.650Z,30.83
2022-10-11T03:43:30.856Z,32.25
2022-10-11T03:45:57.868Z,44.90
2022-10-11T03:48:24.958Z,27.92
2022-10-11T03:50:52.246Z,30.20
2022-10-11T03:53:19.209Z,40.88
2022-10-11T03:55:46.293Z,33.10
2022-10-11T03:58:13.459Z,27.90
2022-10-11T04:00:40.553Z,27.35
2022-10-11T04:03:07.529Z,37.30
2022-10-11T04:05:34.691Z,31.50
2022-10-11T04:08:01.712Z,26.02
2022-10-11T04:10:28.844Z,28.75
2022-10-11T04:12:56.080Z,28.45
2022-10-11T04:15:23.523Z,25.40
2022-10-11T04:17:50.631Z,24.88
2022-10-11T04:20:17.904Z,24.60
2022-10-11T04:22:44.912Z,27.02
2022-10-11T04:25:11.916Z,30.95
2022-10-11T04:27:39.277Z,33.10
2022-10-11T04:30:07.031Z,40.85
2022-10-11T04:32:34.603Z,29.77
2022-10-11T04:35:01.804Z,29.48
2022-10-11T04:37:28.912Z,26.45
2022-10-11T04:39:56.024Z,25.52
2022-10-11T04:42:23.219Z,28.10
2022-10-11T04:44:50.194Z,35.47
2022-10-11T04:47:17.150Z,35.92
2022-10-11T04:49:44.329Z,31.95
2022-10-11T04:52:11.329Z,32.13
2022-10-11T04:54:38.383Z,31.85
2022-10-11T04:57:05.669Z,35.15
2022-10-11T04:59:32.957Z,31.70
2022-10-11T05:02:00.532Z,39.17
2022-10-11T05:04:28.206Z,34.88
2022-10-11T05:06:55.523Z,34.55
2022-10-11T05:09:23.173Z,30.73
2022-10-11T05:11:50.407Z,45.35
2022-10-11T05:14:17.449Z,57.65
2022-10-11T05:16:44.402Z,66.65
2022-10-11T05:19:13.916Z,57.75
2022-10-11T05:21:40.883Z,41.13
2022-10-11T05:24:08.240Z,47.85
2022-10-11T05:26:35.428Z,51.55
2022-10-11T05:29:02.517Z,54.38
2022-10-11T05:31:29.697Z,42.20
2022-10-11T05:33:57.038Z,35.03
2022-10-11T05:36:24.193Z,32.95
2022-10-11T05:38:51.537Z,33.88
2022-10-11T05:41:18.512Z,37.85
2022-10-11T05:43:45.967Z,34.28
2022-10-11T05:46:13.908Z,30.70
2022-10-11T05:48:40.925Z,36.28
2022-10-11T05:51:10.031Z,29.67
2022-10-11T05:53:38.655Z,29.45
2022-10-11T05:56:16.602Z,31.38
2022-10-11T05:58:43.752Z,31.75
2022-10-11T06:01:25.757Z,28.27
2022-10-11T06:03:53.805Z,31.98
2022-10-11T06:06:20.910Z,61.33
2022-10-11T06:08:48.231Z,54.17
2022-10-11T06:11:18.138Z,43.25
2022-10-11T06:13:45.293Z,40.67
2022-10-11T06:16:13.580Z,33.88
2022-10-11T06:18:41.647Z,30.95
2022-10-11T06:21:08.699Z,32.80
2022-10-11T06:23:35.770Z,27.95
2022-10-11T06:26:09.142Z,37.65
2022-10-11T06:28:37.170Z,23.63
2022-10-11T06:31:06.771Z,25.85
2022-10-11T06:33:34.500Z,23.02
2022-10-11T06:36:04.813Z,29.92
2022-10-11T06:38:32.325Z,26.70
2022-10-11T06:41:12.913Z,27.23
2022-10-11T06:43:40.306Z,25.23
2022-10-11T06:46:08.318Z,20.88
2022-10-11T06:48:38.908Z,25.70
2022-10-11T06:51:06.300Z,18.08
2022-10-11T06:53:33.572Z,22.67
2022-10-11T06:56:05.246Z,17.42
2022-10-11T06:58:33.389Z,17.08
2022-10-11T07:01:02.220Z,17.70
2022-10-11T07:03:30.347Z,18.90
2022-10-11T07:06:02.821Z,18.83
2022-10-11T07:08:30.727Z,23.38
2022-10-11T07:11:06.794Z,47.40
2022-10-11T07:13:34.514Z,34.55
2022-10-11T07:16:03.078Z,76.00
2022-10-11T07:18:31.168Z,70.85
2022-10-11T07:20:59.053Z,53.60
2022-10-11T07:23:26.115Z,48.58
2022-10-11T07:25:54.862Z,31.13
2022-10-11T07:28:22.805Z,16.77
2022-10-11T07:30:51.215Z,25.05
2022-10-11T07:33:21.826Z,22.73
2022-10-11T07:35:53.585Z,33.20
2022-10-11T07:38:28.936Z,14.63
2022-10-11T07:40:57.762Z,15.15
2022-10-11T07:43:24.789Z,12.77
2022-10-11T07:45:57.080Z,12.48
2022-10-11T07:48:43.250Z,13.10
2022-10-11T07:51:19.706Z,9.80
2022-10-11T07:53:51.474Z,14.65
2022-10-11T07:56:22.099Z,12.48
2022-10-11T07:58:54.767Z,17.10
2022-10-11T08:01:22.188Z,11.50
2022-10-11T08:03:50.193Z,11.73
2022-10-11T08:06:20.530Z,11.68
2022-10-11T08:08:47.972Z,12.38
2022-10-11T08:11:44.583Z,13.32
2022-10-11T08:14:11.783Z,13.90
2022-10-11T08:16:39.529Z,22.05
2022-10-11T08:19:07.280Z,20.25
2022-10-11T08:21:34.869Z,15.40
2022-10-11T08:24:04.363Z,13.63
2022-10-11T08:26:32.649Z,16.63
2022-10-11T08:29:04.241Z,12.45
2022-10-11T08:31:32.612Z,10.07
2022-10-11T08:33:59.792Z,24.17
2022-10-11T08:36:26.941Z,10.18
2022-10-11T08:38:54.218Z,14.27
2022-10-11T08:41:27.023Z,10.63
2022-10-11T08:44:18.476Z,10.57
2022-10-11T08:46:50.670Z,8.73
2022-10-11T08:49:23.948Z,7.50
2022-10-11T08:52:00.559Z,21.30
2022-10-11T08:54:43.282Z,96.28
2022-10-11T08:57:15.168Z,13.80
2022-10-11T08:59:48.155Z,11.30
2022-10-11T09:02:38.980Z,12.63
2022-10-11T09:05:16.845Z,12.45
2022-10-11T09:08:08.380Z,12.88
2022-10-11T09:11:06.107Z,13.63
2022-10-11T09:14:02.423Z,9.20
2022-10-11T09:16:57.174Z,9.00
2022-10-11T09:19:45.176Z,12.25
2022-10-11T09:22:30.617Z,12.18
2022-10-11T09:25:19.066Z,9.82
2022-10-11T09:28:02.777Z,8.32
2022-10-11T09:30:31.914Z,10.55
2022-10-11T09:33:21.023Z,7.97
2022-10-11T09:35:52.225Z,7.38
2022-10-11T09:38:43.282Z,13.90
2022-10-11T09:41:26.978Z,9.68
2022-10-11T09:43:54.299Z,10.82
2022-10-11T09:46:32.595Z,8.20
2022-10-11T09:49:02.776Z,13.50
2022-10-11T09:51:30.654Z,5.35
2022-10-11T09:54:06.129Z,8.63
2022-10-11T09:56:40.632Z,18.15
2022-10-11T09:59:29.238Z,10.45
2022-10-11T10:02:15.041Z,15.00
2022-10-11T10:05:00.525Z,15.15
2022-10-11T10:07:33.908Z,7.35
2022-10-11T10:10:34.677Z,10.95
2022-10-11T10:13:05.741Z,9.18
2022-10-11T10:15:35.656Z,9.88
2022-10-11T10:18:06.090Z,10.50
2022-10-11T10:20:36.401Z,10.43
2022-10-11T10:23:31.646Z,8.55
2022-10-11T10:26:30.833Z,13.85
2022-10-11T10:28:58.131Z,17.10
2022-10-11T10:31:55.397Z,15.38
2022-10-11T10:34:27.551Z,11.55
2022-10-11T10:37:18.252Z,13.65
2022-10-11T10:40:01.282Z,12.20
2022-10-11T10:42:28.860Z,9.75
2022-10-11T10:44:58.550Z,7.38
2022-10-11T10:47:53.716Z,15.98
2022-10-11T10:53:03.569Z,13.98
2022-10-11T10:55:46.009Z,7.80
2022-10-11T10:58:24.943Z,12.30
2022-10-11T11:00:58.376Z,12.00
2022-10-11T11:03:47.085Z,13.40
2022-10-11T11:06:42.434Z,9.30
2022-10-11T11:09:22.030Z,9.65
2022-10-11T11:11:58.057Z,8.35
2022-10-11T11:14:33.993Z,11.90
2022-10-11T11:17:19.403Z,5.38
2022-10-11T11:20:28.404Z,7.95
2022-10-11T11:23:27.778Z,14.07
2022-10-11T11:26:09.144Z,13.52
2022-10-11T11:28:48.648Z,7.47
2022-10-11T11:31:46.738Z,11.00
2022-10-11T11:34:41.341Z,12.98
2022-10-11T11:37:35.757Z,7.60
2022-10-11T11:40:12.274Z,8.98
2022-10-11T11:42:47.448Z,11.15
2022-10-11T11:45:21.220Z,11.02
2022-10-11T11:47:56.677Z,8.15
2022-10-11T11:50:27.318Z,6.40
2022-10-11T11:53:05.096Z,10.15
2022-10-11T11:55:51.873Z,10.13
2022-10-11T11:58:42.285Z,10.38
2022-10-11T12:01:31.308Z,11.27
2022-10-11T12:04:05.740Z,11.80
2022-10-11T12:06:47.686Z,7.73
2022-10-11T12:09:23.808Z,9.00
2022-10-11T12:12:01.354Z,9.15
2022-10-11T12:14:33.968Z,12.63
2022-10-11T12:17:18.141Z,7.50
2022-10-11T12:20:08.594Z,11.25
2022-10-11T12:22:51.184Z,8.00
2022-10-11T12:25:21.778Z,11.73
2022-10-11T12:27:51.552Z,9.65
2022-10-11T12:30:43.829Z,5.40
2022-10-11T12:33:45.279Z,12.18
2022-10-11T12:36:40.080Z,13.75
2022-10-11T12:39:19.653Z,5.75
2022-10-11T12:41:47.378Z,9.63
2022-10-11T12:44:27.524Z,11.30
2022-10-11T12:46:54.538Z,6.25
2022-10-11T12:49:22.160Z,4.97
2022-10-11T12:51:52.210Z,5.95
2022-10-11T12:54:37.114Z,9.27
2022-10-11T12:57:46.143Z,10.18
2022-10-11T13:00:23.687Z,9.48
2022-10-11T13:02:50.906Z,9.48
2022-10-11T13:05:29.768Z,5.82
2022-10-11T13:08:01.759Z,8.43
2022-10-11T13:10:35.872Z,12.70
2022-10-11T13:13:06.737Z,7.57
2022-10-11T13:15:34.755Z,7.68
2022-10-11T13:18:02.619Z,10.40
2022-10-11T13:20:36.137Z,8.23
2022-10-11T13:23:24.556Z,9.77
2022-10-11T13:25:52.690Z,10.90
2022-10-11T13:28:21.077Z,5.97
2022-10-11T13:30:52.425Z,7.70
2022-10-11T13:33:23.965Z,9.50
2022-10-11T13:35:52.395Z,6.88
2022-10-11T13:38:27.359Z,9.32
2022-10-11T13:40:56.574Z,15.82
2022-10-11T13:43:30.006Z,26.48
2022-10-11T13:45:59.890Z,37.28
2022-10-11T13:48:31.598Z,24.95
2022-10-11T13:51:06.340Z,17.27
2022-10-11T13:53:34.716Z,18.50
2022-10-11T13:56:07.482Z,14.23
2022-10-11T13:58:40.357Z,13.93
2022-10-11T14:01:35.181Z,8.57
2022-10-11T14:04:08.942Z,10.40
2022-10-11T14:06:42.878Z,11.13
2022-10-11T14:09:32.018Z,21.80
2022-10-11T14:12:26.766Z,21.70
2022-10-11T14:14:54.215Z,13.88
2022-10-11T14:17:32.079Z,18.55
2022-10-11T14:20:36.312Z,37.42
2022-10-11T14:23:03.757Z,20.90
2022-10-11T14:25:35.263Z,30.80
2022-10-11T14:28:02.600Z,34.50
2022-10-11T14:30:31.658Z,32.00
2022-10-11T14:33:01.335Z,19.98
2022-10-11T14:35:32.246Z,26.02
2022-10-11T14:38:00.136Z,11.73
2022-10-11T14:40:30.015Z,25.92
2022-10-11T14:42:57.378Z,22.23
2022-10-11T14:45:26.418Z,21.95
2022-10-11T14:47:55.695Z,23.58
2022-10-11T14:50:34.325Z,17.63
2022-10-11T14:53:01.476Z,24.88
2022-10-11T14:55:30.237Z,15.45
2022-10-11T14:57:57.734Z,17.23
2022-10-11T15:00:27.734Z,20.42
2022-10-11T15:02:55.754Z,29.08
2022-10-11T15:05:31.118Z,29.02
2022-10-11T15:08:01.958Z,25.02
2022-10-11T15:10:34.571Z,25.83
2022-10-11T15:13:02.659Z,63.75
2022-10-11T15:15:32.778Z,31.83
2022-10-11T15:18:01.838Z,59.33
2022-10-11T15:20:34.660Z,46.00
2022-10-11T15:23:02.132Z,49.00
2022-10-11T15:25:29.769Z,55.63
2022-10-11T15:27:57.894Z,61.90
2022-10-11T15:30:27.668Z,79.63
2022-10-11T15:32:55.475Z,71.68
2022-10-11T15:35:24.433Z,81.25
2022-10-11T15:37:56.842Z,94.88
2022-10-11T15:40:35.855Z,81.20
2022-10-11T15:43:03.760Z,80.28
2022-10-11T15:45:31.185Z,104.63
2022-10-11T15:47:59.203Z,110.75
2022-10-11T15:50:36.846Z,95.28
2022-10-11T15:53:21.216Z,90.25
2022-10-11T15:55:51.244Z,83.90
2022-10-11T15:58:24.737Z,59.28
2022-10-11T16:00:56.291Z,58.15
2022-10-11T16:03:25.894Z,47.35
2022-10-11T16:05:54.645Z,65.35
2022-10-11T16:08:21.848Z,101.82
2022-10-11T16:10:49.983Z,243.05
2022-10-11T16:13:17.881Z,169.65
2022-10-11T16:15:45.618Z,184.73
2022-10-11T16:18:16.269Z,157.45
2022-10-11T16:20:46.222Z,154.98
2022-10-11T16:23:14.369Z,204.05
2022-10-11T16:25:41.898Z,236.07
2022-10-11T16:28:12.278Z,240.90
2022-10-11T16:30:43.237Z,141.55
2022-10-11T16:33:10.457Z,139.50
2022-10-11T16:35:41.465Z,137.50
2022-10-11T16:38:09.128Z,197.57
2022-10-11T16:40:38.753Z,170.70
2022-10-11T16:43:07.870Z,210.55
2022-10-11T16:45:36.404Z,127.05
2022-10-11T16:48:04.482Z,175.48
2022-10-11T16:50:35.544Z,180.55
2022-10-11T16:53:05.841Z,126.72
2022-10-11T16:55:32.883Z,143.02
2022-10-11T16:58:00.087Z,107.85
2022-10-11T17:00:27.217Z,87.18
2022-10-11T17:02:54.479Z,79.22
2022-10-11T17:05:21.480Z,72.80
2022-10-11T17:07:48.747Z,74.18
2022-10-11T17:10:15.733Z,86.57
2022-10-11T17:12:46.510Z,90.85
2022-10-11T17:15:19.686Z,121.13
2022-10-11T17:17:46.963Z,117.65
2022-10-11T17:20:13.963Z,100.88
2022-10-11T17:22:41.264Z,74.15
2022-10-11T17:25:08.574Z,71.22
2022-10-11T17:27:38.920Z,60.25
2022-10-11T17:30:06.633Z,60.00
2022-10-11T17:32:33.631Z,63.92
2022-10-11T17:35:02.530Z,62.50
2022-10-11T17:37:29.598Z,74.25
2022-10-11T17:39:56.941Z,76.88
2022-10-11T17:42:23.989Z,80.22
2022-10-11T17:44:51.168Z,105.88
2022-10-11T17:47:18.623Z,156.52
2022-10-11T17:49:45.675Z,286.73
2022-10-11T17:52:12.862Z,229.60
2022-10-11T17:54:39.915Z,201.10
2022-10-11T17:57:07.074Z,157.35
2022-10-11T17:59:35.507Z,195.63
2022-10-11T18:02:02.864Z,315.25
2022-10-11T18:04:30.484Z,275.40
2022-10-11T18:06:57.934Z,210.25
2022-10-11T18:09:25.395Z,208.48
2022-10-11T18:11:52.971Z,324.38
2022-10-11T18:14:20.115Z,293.02
2022-10-11T18:16:47.422Z,212.45
2022-10-11T18:19:14.471Z,268.50
2022-10-11T18:21:42.724Z,313.23
2022-10-11T18:24:17.285Z,175.88
2022-10-11T18:26:46.109Z,166.40
2022-10-11T18:29:13.913Z,166.13
2022-10-11T18:31:41.571Z,179.43
2022-10-11T18:34:11.053Z,172.93
2022-10-11T18:36:40.706Z,202.77
2022-10-11T18:39:11.401Z,215.90
2022-10-11T18:41:40.187Z,184.20
2022-10-11T18:44:09.089Z,204.25
2022-10-11T18:46:36.494Z,192.80
2022-10-11T18:49:03.834Z,207.52
2022-10-11T18:51:36.820Z,215.85
2022-10-11T18:54:05.791Z,193.55
2022-10-11T18:56:35.456Z,150.90
2022-10-11T18:59:03.777Z,148.63
2022-10-11T19:01:34.215Z,184.85
2022-10-11T19:04:03.949Z,160.40
2022-10-11T19:06:39.845Z,155.40
2022-10-11T19:09:10.415Z,182.40
2022-10-11T19:11:38.269Z,169.07
2022-10-11T19:14:08.059Z,153.15
2022-10-11T19:16:40.132Z,152.25
2022-10-11T19:19:08.088Z,164.60
2022-10-11T19:21:35.335Z,165.13
2022-10-11T19:24:02.671Z,152.55
2022-10-11T19:26:33.723Z,264.75
2022-10-11T19:29:02.220Z,256.33
2022-10-11T19:35:32.410Z,72.28
2022-10-11T19:38:31.625Z,89.55
2022-10-11T19:41:30.799Z,105.20
2022-10-11T19:43:58.544Z,84.45
2022-10-11T19:54:59.188Z,119.78
2022-10-11T20:01:26.708Z,100.43
2022-10-11T20:07:41.820Z,113.95
2022-10-11T20:10:09.546Z,103.63
2022-10-11T20:16:30.776Z,86.85
2022-10-11T20:18:59.278Z,80.13
2022-10-11T20:22:36.058Z,80.15
2022-10-11T20:26:05.633Z,93.85
2022-10-11T20:30:04.310Z,91.85
2022-10-11T20:36:39.360Z,46.35
2022-10-11T20:39:06.783Z,38.83
2022-10-11T20:41:39.990Z,32.67
2022-10-11T20:44:07.852Z,38.20
2022-10-11T20:51:52.110Z,193.90
2022-10-11T21:04:07.784Z,103.80
2022-10-11T21:11:13.806Z,80.05
2022-10-11T21:13:41.388Z,85.50
2022-10-11T21:16:14.562Z,89.53
2022-10-11T21:27:25.182Z,74.22
2022-10-11T21:29:54.223Z,70.15
2022-10-11T21:33:17.299Z,76.63
2022-10-11T21:45:36.943Z,62.15
2022-10-11T21:48:06.316Z,49.20
2022-10-11T21:50:33.437Z,42.42
2022-10-11T21:53:01.090Z,46.70
2022-10-11T21:55:42.340Z,50.95
2022-10-11T21:58:29.573Z,70.90
2022-10-11T22:01:01.975Z,60.95
2022-10-11T22:03:29.290Z,65.32
2022-10-11T22:05:56.477Z,56.72
2022-10-11T22:08:23.667Z,50.45
2022-10-11T22:10:56.445Z,58.53
2022-10-11T22:17:27.031Z,54.75
2022-10-11T22:20:27.567Z,51.00
2022-10-11T22:23:43.842Z,51.70
2022-10-11T22:30:30.403Z,56.47
2022-10-11T22:38:07.800Z,41.08
2022-10-11T22:41:00.754Z,42.33
2022-10-11T22:48:16.311Z,34.97
2022-10-11T22:54:19.269Z,60.80
2022-10-11T22:56:46.345Z,43.47
2022-10-11T22:59:13.519Z,42.58
2022-10-11T23:05:19.674Z,31.00
2022-10-11T23:07:47.174Z,36.28
2022-10-11T23:14:36.095Z,30.75
2022-10-11T23:20:01.071Z,30.23
2022-10-11T23:25:56.124Z,41.13
2022-10-11T23:29:11.877Z,42.58
2022-10-11T23:33:03.678Z,34.53
2022-10-11T23:36:26.579Z,28.65
2022-10-11T23:39:57.228Z,27.55
2022-10-11T23:43:19.037Z,29.20
2022-10-11T23:46:43.012Z,28.83
2022-10-11T23:56:26.217Z,30.77
2022-10-11T23:58:53.480Z,30.35
